sensor_id;sensor_type;location;lat;lon;timestamp;temperature;humidity
47022;DHT22;32779;52.264;6.154;2023-07-31T00:01:39;15.70;99.90
47022;DHT22;32779;52.264;6.154;2023-07-31T00:04:08;15.70;99.90
47022;DHT22;32779;52.264;6.154;2023-07-31T00:06:33;15.70;99.90
47022;DHT22;32779;52.264;6.154;2023-07-31T00:08:59;15.70;99.90
47022;DHT22;32779;52.264;6.154;2023-07-31T00:11:24;15.80;99.90
47022;DHT22;32779;52.264;6.154;2023-07-31T00:13:50;15.70;99.90
47022;DHT22;32779;52.264;6.154;2023-07-31T00:16:16;15.70;99.90
47022;DHT22;32779;52.264;6.154;2023-07-31T00:18:41;15.80;99.90
47022;DHT22;32779;52.264;6.154;2023-07-31T00:21:07;15.80;99.90
47022;DHT22;32779;52.264;6.154;2023-07-31T00:23:32;15.70;99.90
47022;DHT22;32779;52.264;6.154;2023-07-31T00:25:58;15.70;99.90
47022;DHT22;32779;52.264;6.154;2023-07-31T00:28:23;15.70;99.90
47022;DHT22;32779;52.264;6.154;2023-07-31T00:30:49;15.70;99.90
47022;DHT22;32779;52.264;6.154;2023-07-31T00:33:14;15.70;99.90
47022;DHT22;32779;52.264;6.154;2023-07-31T00:35:40;15.70;99.90
47022;DHT22;32779;52.264;6.154;2023-07-31T00:38:05;15.70;99.90
47022;DHT22;32779;52.264;6.154;2023-07-31T00:40:34;15.70;99.90
47022;DHT22;32779;52.264;6.154;2023-07-31T00:43:00;15.70;99.90
47022;DHT22;32779;52.264;6.154;2023-07-31T00:45:25;15.70;99.90
47022;DHT22;32779;52.264;6.154;2023-07-31T00:47:52;15.70;99.90
47022;DHT22;32779;52.264;6.154;2023-07-31T00:50:18;15.70;99.90
47022;DHT22;32779;52.264;6.154;2023-07-31T00:52:44;15.70;99.90
47022;DHT22;32779;52.264;6.154;2023-07-31T00:55:09;15.80;99.90
47022;DHT22;32779;52.264;6.154;2023-07-31T00:57:36;15.70;99.90
47022;DHT22;32779;52.264;6.154;2023-07-31T01:00:03;15.80;99.90
47022;DHT22;32779;52.264;6.154;2023-07-31T01:02:29;15.80;99.90
47022;DHT22;32779;52.264;6.154;2023-07-31T01:04:55;15.70;99.90
47022;DHT22;32779;52.264;6.154;2023-07-31T01:07:45;15.80;99.90
47022;DHT22;32779;52.264;6.154;2023-07-31T01:12:32;15.80;99.90
47022;DHT22;32779;52.264;6.154;2023-07-31T01:15:02;15.80;99.90
47022;DHT22;32779;52.264;6.154;2023-07-31T01:17:28;15.80;99.90
47022;DHT22;32779;52.264;6.154;2023-07-31T01:19:55;15.80;99.90
47022;DHT22;32779;52.264;6.154;2023-07-31T01:22:49;15.80;99.90
47022;DHT22;32779;52.264;6.154;2023-07-31T01:31:15;15.90;99.90
47022;DHT22;32779;52.264;6.154;2023-07-31T01:33:41;15.90;99.90
47022;DHT22;32779;52.264;6.154;2023-07-31T01:36:07;15.90;99.90
47022;DHT22;32779;52.264;6.154;2023-07-31T01:38:33;15.90;99.90
47022;DHT22;32779;52.264;6.154;2023-07-31T01:40:59;15.90;99.90
47022;DHT22;32779;52.264;6.154;2023-07-31T01:43:24;15.80;99.90
47022;DHT22;32779;52.264;6.154;2023-07-31T01:45:50;15.80;99.90
47022;DHT22;32779;52.264;6.154;2023-07-31T01:48:15;15.90;99.90
47022;DHT22;32779;52.264;6.154;2023-07-31T01:50:41;15.80;99.90
47022;DHT22;32779;52.264;6.154;2023-07-31T01:53:06;15.90;99.90
47022;DHT22;32779;52.264;6.154;2023-07-31T01:55:32;15.90;99.90
47022;DHT22;32779;52.264;6.154;2023-07-31T01:57:58;15.90;99.90
47022;DHT22;32779;52.264;6.154;2023-07-31T02:00:23;15.90;99.90
47022;DHT22;32779;52.264;6.154;2023-07-31T02:02:49;15.90;99.90
47022;DHT22;32779;52.264;6.154;2023-07-31T02:05:15;15.90;99.90
47022;DHT22;32779;52.264;6.154;2023-07-31T02:07:40;15.90;99.90
47022;DHT22;32779;52.264;6.154;2023-07-31T02:10:06;15.90;99.90
47022;DHT22;32779;52.264;6.154;2023-07-31T02:12:31;15.90;99.90
47022;DHT22;32779;52.264;6.154;2023-07-31T02:14:58;15.90;99.90
47022;DHT22;32779;52.264;6.154;2023-07-31T02:17:24;15.90;99.90
47022;DHT22;32779;52.264;6.154;2023-07-31T02:19:50;16.00;99.90
47022;DHT22;32779;52.264;6.154;2023-07-31T02:22:15;16.00;99.90
47022;DHT22;32779;52.264;6.154;2023-07-31T02:24:41;16.00;99.90
47022;DHT22;32779;52.264;6.154;2023-07-31T02:27:06;16.00;99.90
47022;DHT22;32779;52.264;6.154;2023-07-31T02:29:32;16.10;99.90
47022;DHT22;32779;52.264;6.154;2023-07-31T02:31:57;16.10;99.90
47022;DHT22;32779;52.264;6.154;2023-07-31T02:34:23;16.10;99.90
47022;DHT22;32779;52.264;6.154;2023-07-31T02:36:48;16.20;99.90
47022;DHT22;32779;52.264;6.154;2023-07-31T02:39:14;16.20;99.90
47022;DHT22;32779;52.264;6.154;2023-07-31T02:41:39;16.30;99.90
47022;DHT22;32779;52.264;6.154;2023-07-31T02:44:05;16.30;99.90
47022;DHT22;32779;52.264;6.154;2023-07-31T02:46:30;16.30;99.90
47022;DHT22;32779;52.264;6.154;2023-07-31T02:48:56;16.30;99.90
47022;DHT22;32779;52.264;6.154;2023-07-31T02:51:22;16.30;99.90
47022;DHT22;32779;52.264;6.154;2023-07-31T02:53:48;16.30;99.90
47022;DHT22;32779;52.264;6.154;2023-07-31T02:56:13;16.30;99.90
47022;DHT22;32779;52.264;6.154;2023-07-31T02:58:39;16.40;99.90
47022;DHT22;32779;52.264;6.154;2023-07-31T03:01:04;16.40;99.90
47022;DHT22;32779;52.264;6.154;2023-07-31T03:03:30;16.40;99.90
47022;DHT22;32779;52.264;6.154;2023-07-31T03:05:56;16.40;99.90
47022;DHT22;32779;52.264;6.154;2023-07-31T03:08:23;16.40;99.90
47022;DHT22;32779;52.264;6.154;2023-07-31T03:10:48;16.40;99.90
47022;DHT22;32779;52.264;6.154;2023-07-31T03:13:14;16.40;99.90
47022;DHT22;32779;52.264;6.154;2023-07-31T03:15:42;16.40;99.90
47022;DHT22;32779;52.264;6.154;2023-07-31T03:18:08;16.50;99.90
47022;DHT22;32779;52.264;6.154;2023-07-31T03:20:33;16.40;99.90
47022;DHT22;32779;52.264;6.154;2023-07-31T03:22:59;16.40;99.90
47022;DHT22;32779;52.264;6.154;2023-07-31T03:25:24;16.50;99.90
47022;DHT22;32779;52.264;6.154;2023-07-31T03:27:50;16.50;99.90
47022;DHT22;32779;52.264;6.154;2023-07-31T03:30:15;16.50;99.90
47022;DHT22;32779;52.264;6.154;2023-07-31T03:32:41;16.60;99.90
47022;DHT22;32779;52.264;6.154;2023-07-31T03:35:07;16.60;99.90
47022;DHT22;32779;52.264;6.154;2023-07-31T03:37:32;16.60;99.90
47022;DHT22;32779;52.264;6.154;2023-07-31T03:39:58;16.60;99.90
47022;DHT22;32779;52.264;6.154;2023-07-31T03:42:23;16.60;99.90
47022;DHT22;32779;52.264;6.154;2023-07-31T03:44:49;16.60;99.90
47022;DHT22;32779;52.264;6.154;2023-07-31T03:47:15;16.60;99.90
47022;DHT22;32779;52.264;6.154;2023-07-31T03:49:40;16.60;99.90
47022;DHT22;32779;52.264;6.154;2023-07-31T03:52:06;16.60;99.90
47022;DHT22;32779;52.264;6.154;2023-07-31T03:54:32;16.60;99.90
47022;DHT22;32779;52.264;6.154;2023-07-31T03:56:58;16.60;99.90
47022;DHT22;32779;52.264;6.154;2023-07-31T03:59:23;16.60;99.90
47022;DHT22;32779;52.264;6.154;2023-07-31T04:01:49;16.60;99.90
47022;DHT22;32779;52.264;6.154;2023-07-31T04:04:14;16.60;99.90
47022;DHT22;32779;52.264;6.154;2023-07-31T04:06:40;16.60;99.90
47022;DHT22;32779;52.264;6.154;2023-07-31T04:09:05;16.60;99.90
47022;DHT22;32779;52.264;6.154;2023-07-31T04:11:32;16.60;99.90
47022;DHT22;32779;52.264;6.154;2023-07-31T04:13:57;16.60;99.90
47022;DHT22;32779;52.264;6.154;2023-07-31T04:16:23;16.60;99.90
47022;DHT22;32779;52.264;6.154;2023-07-31T04:18:48;16.60;99.90
47022;DHT22;32779;52.264;6.154;2023-07-31T04:21:14;16.60;99.90
47022;DHT22;32779;52.264;6.154;2023-07-31T04:23:39;16.60;99.90
47022;DHT22;32779;52.264;6.154;2023-07-31T04:26:05;16.60;99.90
47022;DHT22;32779;52.264;6.154;2023-07-31T04:28:30;16.60;99.90
47022;DHT22;32779;52.264;6.154;2023-07-31T04:30:57;16.60;99.90
47022;DHT22;32779;52.264;6.154;2023-07-31T04:33:22;16.50;99.90
47022;DHT22;32779;52.264;6.154;2023-07-31T04:35:50;16.50;99.90
47022;DHT22;32779;52.264;6.154;2023-07-31T04:38:18;16.50;99.90
47022;DHT22;32779;52.264;6.154;2023-07-31T04:40:44;16.50;99.90
47022;DHT22;32779;52.264;6.154;2023-07-31T04:43:09;16.50;99.90
47022;DHT22;32779;52.264;6.154;2023-07-31T04:45:35;16.50;99.90
47022;DHT22;32779;52.264;6.154;2023-07-31T04:48:00;16.50;99.90
47022;DHT22;32779;52.264;6.154;2023-07-31T04:50:26;16.50;99.90
47022;DHT22;32779;52.264;6.154;2023-07-31T04:52:51;16.40;99.90
47022;DHT22;32779;52.264;6.154;2023-07-31T04:55:17;16.40;99.90
47022;DHT22;32779;52.264;6.154;2023-07-31T04:57:43;16.40;99.90
47022;DHT22;32779;52.264;6.154;2023-07-31T05:00:09;16.40;99.90
47022;DHT22;32779;52.264;6.154;2023-07-31T05:02:34;16.40;99.90
47022;DHT22;32779;52.264;6.154;2023-07-31T05:05:00;16.40;99.90
47022;DHT22;32779;52.264;6.154;2023-07-31T05:07:25;16.40;99.90
47022;DHT22;32779;52.264;6.154;2023-07-31T05:09:51;16.50;99.90
47022;DHT22;32779;52.264;6.154;2023-07-31T05:12:16;16.40;99.90
47022;DHT22;32779;52.264;6.154;2023-07-31T05:14:42;16.40;99.90
47022;DHT22;32779;52.264;6.154;2023-07-31T05:17:07;16.40;99.90
47022;DHT22;32779;52.264;6.154;2023-07-31T05:19:33;16.40;99.90
47022;DHT22;32779;52.264;6.154;2023-07-31T05:21:59;16.50;99.90
47022;DHT22;32779;52.264;6.154;2023-07-31T05:24:24;16.50;99.90
47022;DHT22;32779;52.264;6.154;2023-07-31T05:26:50;16.50;99.90
47022;DHT22;32779;52.264;6.154;2023-07-31T05:29:15;16.50;99.90
47022;DHT22;32779;52.264;6.154;2023-07-31T05:31:42;16.50;99.90
47022;DHT22;32779;52.264;6.154;2023-07-31T05:34:07;16.50;99.90
47022;DHT22;32779;52.264;6.154;2023-07-31T05:36:33;16.50;99.90
47022;DHT22;32779;52.264;6.154;2023-07-31T05:38:58;16.60;99.90
47022;DHT22;32779;52.264;6.154;2023-07-31T05:41:24;16.60;99.90
47022;DHT22;32779;52.264;6.154;2023-07-31T05:43:49;16.50;99.90
47022;DHT22;32779;52.264;6.154;2023-07-31T05:46:15;16.50;99.90
47022;DHT22;32779;52.264;6.154;2023-07-31T05:48:40;16.50;99.90
47022;DHT22;32779;52.264;6.154;2023-07-31T05:51:06;16.50;99.90
47022;DHT22;32779;52.264;6.154;2023-07-31T05:53:32;16.50;99.90
47022;DHT22;32779;52.264;6.154;2023-07-31T05:55:57;16.50;99.90
47022;DHT22;32779;52.264;6.154;2023-07-31T05:58:23;16.50;99.90
47022;DHT22;32779;52.264;6.154;2023-07-31T06:00:48;16.40;99.90
47022;DHT22;32779;52.264;6.154;2023-07-31T06:03:14;16.40;99.90
47022;DHT22;32779;52.264;6.154;2023-07-31T06:05:39;16.40;99.90
47022;DHT22;32779;52.264;6.154;2023-07-31T06:08:05;16.40;99.90
47022;DHT22;32779;52.264;6.154;2023-07-31T06:10:30;16.40;99.90
47022;DHT22;32779;52.264;6.154;2023-07-31T06:12:56;16.40;99.90
47022;DHT22;32779;52.264;6.154;2023-07-31T06:15:22;16.30;99.90
47022;DHT22;32779;52.264;6.154;2023-07-31T06:17:48;16.30;99.90
47022;DHT22;32779;52.264;6.154;2023-07-31T06:20:13;16.30;99.90
47022;DHT22;32779;52.264;6.154;2023-07-31T06:22:39;16.30;99.90
47022;DHT22;32779;52.264;6.154;2023-07-31T06:25:04;16.30;99.90
47022;DHT22;32779;52.264;6.154;2023-07-31T06:27:30;16.30;99.90
47022;DHT22;32779;52.264;6.154;2023-07-31T06:29:56;16.30;99.90
47022;DHT22;32779;52.264;6.154;2023-07-31T06:32:21;16.30;99.90
47022;DHT22;32779;52.264;6.154;2023-07-31T06:34:47;16.30;99.90
47022;DHT22;32779;52.264;6.154;2023-07-31T06:37:12;16.40;99.90
47022;DHT22;32779;52.264;6.154;2023-07-31T06:39:38;16.40;99.90
47022;DHT22;32779;52.264;6.154;2023-07-31T06:42:04;16.40;99.90
47022;DHT22;32779;52.264;6.154;2023-07-31T06:44:29;16.40;99.90
47022;DHT22;32779;52.264;6.154;2023-07-31T06:46:55;16.50;99.90
47022;DHT22;32779;52.264;6.154;2023-07-31T06:49:20;16.50;99.90
47022;DHT22;32779;52.264;6.154;2023-07-31T06:51:46;16.50;99.90
47022;DHT22;32779;52.264;6.154;2023-07-31T06:54:11;16.60;99.90
47022;DHT22;32779;52.264;6.154;2023-07-31T06:56:37;16.60;99.90
47022;DHT22;32779;52.264;6.154;2023-07-31T06:59:03;16.70;99.90
47022;DHT22;32779;52.264;6.154;2023-07-31T07:01:28;16.70;99.90
47022;DHT22;32779;52.264;6.154;2023-07-31T07:03:54;16.70;99.90
47022;DHT22;32779;52.264;6.154;2023-07-31T07:06:20;16.80;99.90
47022;DHT22;32779;52.264;6.154;2023-07-31T07:08:45;16.80;99.90
47022;DHT22;32779;52.264;6.154;2023-07-31T07:11:11;16.90;99.90
47022;DHT22;32779;52.264;6.154;2023-07-31T07:13:36;16.90;99.90
47022;DHT22;32779;52.264;6.154;2023-07-31T07:16:01;16.90;99.90
47022;DHT22;32779;52.264;6.154;2023-07-31T07:18:27;17.00;99.90
47022;DHT22;32779;52.264;6.154;2023-07-31T07:20:53;17.10;99.90
47022;DHT22;32779;52.264;6.154;2023-07-31T07:23:19;17.10;99.90
47022;DHT22;32779;52.264;6.154;2023-07-31T07:25:46;17.10;99.90
47022;DHT22;32779;52.264;6.154;2023-07-31T07:28:11;17.10;99.90
47022;DHT22;32779;52.264;6.154;2023-07-31T07:30:37;17.10;99.90
47022;DHT22;32779;52.264;6.154;2023-07-31T07:33:03;17.20;99.90
47022;DHT22;32779;52.264;6.154;2023-07-31T07:35:28;17.20;99.90
47022;DHT22;32779;52.264;6.154;2023-07-31T07:37:54;17.20;99.90
47022;DHT22;32779;52.264;6.154;2023-07-31T07:40:20;17.20;99.90
47022;DHT22;32779;52.264;6.154;2023-07-31T07:42:48;17.30;99.90
47022;DHT22;32779;52.264;6.154;2023-07-31T07:45:13;17.30;99.90
47022;DHT22;32779;52.264;6.154;2023-07-31T07:47:40;17.30;99.90
47022;DHT22;32779;52.264;6.154;2023-07-31T07:50:06;17.40;99.90
47022;DHT22;32779;52.264;6.154;2023-07-31T07:52:31;17.40;99.90
47022;DHT22;32779;52.264;6.154;2023-07-31T07:54:57;17.40;99.90
47022;DHT22;32779;52.264;6.154;2023-07-31T07:57:22;17.40;99.90
47022;DHT22;32779;52.264;6.154;2023-07-31T07:59:48;17.50;99.90
47022;DHT22;32779;52.264;6.154;2023-07-31T08:02:13;17.50;99.90
47022;DHT22;32779;52.264;6.154;2023-07-31T08:04:39;17.50;99.90
47022;DHT22;32779;52.264;6.154;2023-07-31T08:07:04;17.50;99.90
47022;DHT22;32779;52.264;6.154;2023-07-31T08:09:30;17.50;99.90
47022;DHT22;32779;52.264;6.154;2023-07-31T08:11:56;17.50;99.90
47022;DHT22;32779;52.264;6.154;2023-07-31T08:14:23;17.50;99.90
47022;DHT22;32779;52.264;6.154;2023-07-31T08:16:49;17.50;99.90
47022;DHT22;32779;52.264;6.154;2023-07-31T08:19:15;17.50;99.90
47022;DHT22;32779;52.264;6.154;2023-07-31T08:21:40;17.50;99.90
47022;DHT22;32779;52.264;6.154;2023-07-31T08:24:06;17.50;99.90
47022;DHT22;32779;52.264;6.154;2023-07-31T08:26:33;17.50;99.90
47022;DHT22;32779;52.264;6.154;2023-07-31T08:28:58;17.50;99.90
47022;DHT22;32779;52.264;6.154;2023-07-31T08:31:24;17.50;99.90
47022;DHT22;32779;52.264;6.154;2023-07-31T08:33:49;17.60;99.90
47022;DHT22;32779;52.264;6.154;2023-07-31T08:36:15;17.60;99.90
47022;DHT22;32779;52.264;6.154;2023-07-31T08:38:40;17.60;99.90
47022;DHT22;32779;52.264;6.154;2023-07-31T08:41:06;17.60;99.90
47022;DHT22;32779;52.264;6.154;2023-07-31T08:43:31;17.60;99.90
47022;DHT22;32779;52.264;6.154;2023-07-31T08:45:57;17.70;99.90
47022;DHT22;32779;52.264;6.154;2023-07-31T08:48:23;17.70;99.90
47022;DHT22;32779;52.264;6.154;2023-07-31T08:50:50;17.70;99.90
47022;DHT22;32779;52.264;6.154;2023-07-31T08:53:16;17.70;99.90
47022;DHT22;32779;52.264;6.154;2023-07-31T08:55:42;17.70;99.90
47022;DHT22;32779;52.264;6.154;2023-07-31T08:58:08;17.80;99.90
47022;DHT22;32779;52.264;6.154;2023-07-31T09:00:34;17.80;99.90
47022;DHT22;32779;52.264;6.154;2023-07-31T09:03:03;17.80;99.90
47022;DHT22;32779;52.264;6.154;2023-07-31T09:05:31;17.80;99.90
47022;DHT22;32779;52.264;6.154;2023-07-31T09:07:57;17.80;99.90
47022;DHT22;32779;52.264;6.154;2023-07-31T09:10:23;17.90;99.90
47022;DHT22;32779;52.264;6.154;2023-07-31T09:12:50;17.80;99.90
47022;DHT22;32779;52.264;6.154;2023-07-31T09:15:16;17.80;99.90
47022;DHT22;32779;52.264;6.154;2023-07-31T09:17:42;17.80;99.90
47022;DHT22;32779;52.264;6.154;2023-07-31T09:20:14;17.90;99.90
47022;DHT22;32779;52.264;6.154;2023-07-31T09:22:40;17.90;99.90
47022;DHT22;32779;52.264;6.154;2023-07-31T09:25:22;17.90;99.90
47022;DHT22;32779;52.264;6.154;2023-07-31T09:30:25;18.00;99.90
47022;DHT22;32779;52.264;6.154;2023-07-31T09:32:52;17.90;99.90
47022;DHT22;32779;52.264;6.154;2023-07-31T09:37:55;18.00;99.90
47022;DHT22;32779;52.264;6.154;2023-07-31T09:42:53;18.10;99.90
47022;DHT22;32779;52.264;6.154;2023-07-31T09:45:18;18.10;99.90
47022;DHT22;32779;52.264;6.154;2023-07-31T09:47:47;18.20;99.90
47022;DHT22;32779;52.264;6.154;2023-07-31T09:50:16;18.20;99.90
47022;DHT22;32779;52.264;6.154;2023-07-31T09:52:41;18.20;99.90
47022;DHT22;32779;52.264;6.154;2023-07-31T09:55:07;18.20;99.90
47022;DHT22;32779;52.264;6.154;2023-07-31T09:57:33;18.20;99.90
47022;DHT22;32779;52.264;6.154;2023-07-31T09:59:59;18.30;99.90
47022;DHT22;32779;52.264;6.154;2023-07-31T10:02:25;18.30;99.90
47022;DHT22;32779;52.264;6.154;2023-07-31T10:04:51;18.30;99.90
47022;DHT22;32779;52.264;6.154;2023-07-31T10:07:19;18.30;99.90
47022;DHT22;32779;52.264;6.154;2023-07-31T10:09:45;18.40;99.90
47022;DHT22;32779;52.264;6.154;2023-07-31T10:12:12;18.40;99.90
47022;DHT22;32779;52.264;6.154;2023-07-31T10:14:40;18.50;99.90
47022;DHT22;32779;52.264;6.154;2023-07-31T10:17:06;18.50;99.90
47022;DHT22;32779;52.264;6.154;2023-07-31T10:19:32;18.60;99.90
47022;DHT22;32779;52.264;6.154;2023-07-31T10:21:57;18.60;99.90
47022;DHT22;32779;52.264;6.154;2023-07-31T10:24:24;18.60;99.90
47022;DHT22;32779;52.264;6.154;2023-07-31T10:26:49;18.60;99.90
47022;DHT22;32779;52.264;6.154;2023-07-31T10:29:17;18.60;99.90
47022;DHT22;32779;52.264;6.154;2023-07-31T10:31:43;18.60;99.90
47022;DHT22;32779;52.264;6.154;2023-07-31T10:34:09;18.50;99.90
47022;DHT22;32779;52.264;6.154;2023-07-31T10:36:35;18.60;99.90
47022;DHT22;32779;52.264;6.154;2023-07-31T10:39:00;18.60;99.90
47022;DHT22;32779;52.264;6.154;2023-07-31T10:41:29;18.60;99.90
47022;DHT22;32779;52.264;6.154;2023-07-31T10:44:02;18.60;99.90
47022;DHT22;32779;52.264;6.154;2023-07-31T10:46:28;18.60;99.90
47022;DHT22;32779;52.264;6.154;2023-07-31T10:48:58;18.60;99.90
47022;DHT22;32779;52.264;6.154;2023-07-31T10:51:24;18.60;99.90
47022;DHT22;32779;52.264;6.154;2023-07-31T10:54:10;18.50;99.90
47022;DHT22;32779;52.264;6.154;2023-07-31T10:56:38;18.60;99.90
47022;DHT22;32779;52.264;6.154;2023-07-31T10:59:05;18.60;99.90
47022;DHT22;32779;52.264;6.154;2023-07-31T11:04:15;18.60;99.90
47022;DHT22;32779;52.264;6.154;2023-07-31T11:06:55;18.70;99.90
47022;DHT22;32779;52.264;6.154;2023-07-31T11:09:20;18.70;99.90
47022;DHT22;32779;52.264;6.154;2023-07-31T11:11:46;18.70;99.90
47022;DHT22;32779;52.264;6.154;2023-07-31T11:14:11;18.70;99.90
47022;DHT22;32779;52.264;6.154;2023-07-31T11:16:37;18.80;99.90
47022;DHT22;32779;52.264;6.154;2023-07-31T11:19:02;18.80;99.90
47022;DHT22;32779;52.264;6.154;2023-07-31T11:21:33;18.80;99.90
47022;DHT22;32779;52.264;6.154;2023-07-31T11:23:59;18.80;99.90
47022;DHT22;32779;52.264;6.154;2023-07-31T11:26:24;18.80;99.90
47022;DHT22;32779;52.264;6.154;2023-07-31T11:28:50;18.90;99.90
47022;DHT22;32779;52.264;6.154;2023-07-31T11:31:16;18.90;99.90
47022;DHT22;32779;52.264;6.154;2023-07-31T11:33:41;19.00;99.90
47022;DHT22;32779;52.264;6.154;2023-07-31T11:36:13;19.00;99.90
47022;DHT22;32779;52.264;6.154;2023-07-31T11:38:39;19.00;99.90
47022;DHT22;32779;52.264;6.154;2023-07-31T11:41:05;19.10;99.90
47022;DHT22;32779;52.264;6.154;2023-07-31T11:43:30;19.10;99.90
47022;DHT22;32779;52.264;6.154;2023-07-31T11:45:57;19.10;99.90
47022;DHT22;32779;52.264;6.154;2023-07-31T11:48:26;19.20;99.90
47022;DHT22;32779;52.264;6.154;2023-07-31T11:50:53;19.20;99.90
47022;DHT22;32779;52.264;6.154;2023-07-31T11:53:24;19.20;99.90
47022;DHT22;32779;52.264;6.154;2023-07-31T11:55:50;19.10;99.90
47022;DHT22;32779;52.264;6.154;2023-07-31T11:58:16;19.20;99.90
47022;DHT22;32779;52.264;6.154;2023-07-31T12:00:43;19.20;99.90
47022;DHT22;32779;52.264;6.154;2023-07-31T12:03:08;19.20;99.90
47022;DHT22;32779;52.264;6.154;2023-07-31T12:05:35;19.20;99.90
47022;DHT22;32779;52.264;6.154;2023-07-31T12:08:02;19.20;99.90
47022;DHT22;32779;52.264;6.154;2023-07-31T12:10:33;19.30;99.90
47022;DHT22;32779;52.264;6.154;2023-07-31T12:13:03;19.30;99.90
47022;DHT22;32779;52.264;6.154;2023-07-31T12:15:38;19.30;99.90
47022;DHT22;32779;52.264;6.154;2023-07-31T12:18:05;19.30;99.90
47022;DHT22;32779;52.264;6.154;2023-07-31T12:20:31;19.30;99.90
47022;DHT22;32779;52.264;6.154;2023-07-31T12:22:57;19.30;99.90
47022;DHT22;32779;52.264;6.154;2023-07-31T12:25:28;19.30;99.90
47022;DHT22;32779;52.264;6.154;2023-07-31T12:27:53;19.30;99.90
47022;DHT22;32779;52.264;6.154;2023-07-31T12:30:29;19.30;99.90
47022;DHT22;32779;52.264;6.154;2023-07-31T12:32:55;19.20;99.90
47022;DHT22;32779;52.264;6.154;2023-07-31T12:35:20;19.20;99.90
47022;DHT22;32779;52.264;6.154;2023-07-31T12:37:46;19.20;99.90
47022;DHT22;32779;52.264;6.154;2023-07-31T12:40:11;19.20;99.90
47022;DHT22;32779;52.264;6.154;2023-07-31T12:42:37;19.10;99.90
47022;DHT22;32779;52.264;6.154;2023-07-31T12:45:03;19.10;99.90
47022;DHT22;32779;52.264;6.154;2023-07-31T12:47:29;19.10;99.90
47022;DHT22;32779;52.264;6.154;2023-07-31T12:49:55;19.10;99.90
47022;DHT22;32779;52.264;6.154;2023-07-31T12:52:20;19.10;99.90
47022;DHT22;32779;52.264;6.154;2023-07-31T12:54:46;19.10;99.90
47022;DHT22;32779;52.264;6.154;2023-07-31T12:57:11;19.20;99.90
47022;DHT22;32779;52.264;6.154;2023-07-31T12:59:36;19.20;99.90
47022;DHT22;32779;52.264;6.154;2023-07-31T13:02:02;19.20;99.90
47022;DHT22;32779;52.264;6.154;2023-07-31T13:04:28;19.30;99.90
47022;DHT22;32779;52.264;6.154;2023-07-31T13:06:53;19.30;99.90
47022;DHT22;32779;52.264;6.154;2023-07-31T13:09:18;19.30;99.90
47022;DHT22;32779;52.264;6.154;2023-07-31T13:11:44;19.40;99.90
47022;DHT22;32779;52.264;6.154;2023-07-31T13:14:09;19.40;99.90
47022;DHT22;32779;52.264;6.154;2023-07-31T13:16:36;19.40;99.90
47022;DHT22;32779;52.264;6.154;2023-07-31T13:19:01;19.40;99.90
47022;DHT22;32779;52.264;6.154;2023-07-31T13:21:27;19.40;99.90
47022;DHT22;32779;52.264;6.154;2023-07-31T13:23:52;19.40;99.90
47022;DHT22;32779;52.264;6.154;2023-07-31T13:26:18;19.40;99.90
47022;DHT22;32779;52.264;6.154;2023-07-31T13:28:43;19.40;99.90
47022;DHT22;32779;52.264;6.154;2023-07-31T13:31:09;19.40;99.90
47022;DHT22;32779;52.264;6.154;2023-07-31T13:33:36;19.40;99.90
47022;DHT22;32779;52.264;6.154;2023-07-31T13:36:02;19.50;99.90
47022;DHT22;32779;52.264;6.154;2023-07-31T13:38:27;19.40;99.90
47022;DHT22;32779;52.264;6.154;2023-07-31T13:40:53;19.40;99.90
47022;DHT22;32779;52.264;6.154;2023-07-31T13:43:18;19.40;99.90
47022;DHT22;32779;52.264;6.154;2023-07-31T13:45:43;19.40;99.90
47022;DHT22;32779;52.264;6.154;2023-07-31T13:48:09;19.40;99.90
47022;DHT22;32779;52.264;6.154;2023-07-31T13:50:34;19.50;99.90
47022;DHT22;32779;52.264;6.154;2023-07-31T13:53:02;19.50;99.90
47022;DHT22;32779;52.264;6.154;2023-07-31T13:55:27;19.50;99.90
47022;DHT22;32779;52.264;6.154;2023-07-31T13:57:53;19.50;99.90
47022;DHT22;32779;52.264;6.154;2023-07-31T14:00:18;19.50;99.90
47022;DHT22;32779;52.264;6.154;2023-07-31T14:02:44;19.50;99.90
47022;DHT22;32779;52.264;6.154;2023-07-31T14:05:09;19.50;99.90
47022;DHT22;32779;52.264;6.154;2023-07-31T14:07:35;19.50;99.90
47022;DHT22;32779;52.264;6.154;2023-07-31T14:10:00;19.50;99.90
47022;DHT22;32779;52.264;6.154;2023-07-31T14:12:26;19.40;99.90
47022;DHT22;32779;52.264;6.154;2023-07-31T14:14:51;19.40;99.90
47022;DHT22;32779;52.264;6.154;2023-07-31T14:17:17;19.30;99.90
47022;DHT22;32779;52.264;6.154;2023-07-31T14:19:42;19.30;99.90
47022;DHT22;32779;52.264;6.154;2023-07-31T14:22:08;19.20;99.90
47022;DHT22;32779;52.264;6.154;2023-07-31T14:24:33;19.20;99.90
47022;DHT22;32779;52.264;6.154;2023-07-31T14:26:59;19.20;99.90
47022;DHT22;32779;52.264;6.154;2023-07-31T14:29:25;19.10;99.90
47022;DHT22;32779;52.264;6.154;2023-07-31T14:31:50;19.10;99.90
47022;DHT22;32779;52.264;6.154;2023-07-31T14:34:16;19.10;99.90
47022;DHT22;32779;52.264;6.154;2023-07-31T14:36:42;19.00;99.90
47022;DHT22;32779;52.264;6.154;2023-07-31T14:39:07;19.00;99.90
47022;DHT22;32779;52.264;6.154;2023-07-31T14:41:33;18.90;99.90
47022;DHT22;32779;52.264;6.154;2023-07-31T14:43:58;18.90;99.90
47022;DHT22;32779;52.264;6.154;2023-07-31T14:46:24;18.80;99.90
47022;DHT22;32779;52.264;6.154;2023-07-31T14:48:49;18.80;99.90
47022;DHT22;32779;52.264;6.154;2023-07-31T14:51:15;18.80;99.90
47022;DHT22;32779;52.264;6.154;2023-07-31T14:53:41;18.80;99.90
47022;DHT22;32779;52.264;6.154;2023-07-31T14:56:07;18.80;99.90
47022;DHT22;32779;52.264;6.154;2023-07-31T14:58:33;18.70;99.90
47022;DHT22;32779;52.264;6.154;2023-07-31T15:00:58;18.70;99.90
47022;DHT22;32779;52.264;6.154;2023-07-31T15:03:24;18.70;99.90
47022;DHT22;32779;52.264;6.154;2023-07-31T15:05:50;18.60;99.90
47022;DHT22;32779;52.264;6.154;2023-07-31T15:08:15;18.70;99.90
47022;DHT22;32779;52.264;6.154;2023-07-31T15:10:41;18.60;99.90
47022;DHT22;32779;52.264;6.154;2023-07-31T15:13:06;18.60;99.90
47022;DHT22;32779;52.264;6.154;2023-07-31T15:15:32;18.70;99.90
47022;DHT22;32779;52.264;6.154;2023-07-31T15:17:57;18.70;99.90
47022;DHT22;32779;52.264;6.154;2023-07-31T15:20:23;18.70;99.90
47022;DHT22;32779;52.264;6.154;2023-07-31T15:22:48;18.70;99.90
47022;DHT22;32779;52.264;6.154;2023-07-31T15:25:14;18.70;99.90
47022;DHT22;32779;52.264;6.154;2023-07-31T15:27:39;18.70;99.90
47022;DHT22;32779;52.264;6.154;2023-07-31T15:30:05;18.70;99.90
47022;DHT22;32779;52.264;6.154;2023-07-31T15:32:31;18.70;99.90
47022;DHT22;32779;52.264;6.154;2023-07-31T15:34:56;18.70;99.90
47022;DHT22;32779;52.264;6.154;2023-07-31T15:37:22;18.70;99.90
47022;DHT22;32779;52.264;6.154;2023-07-31T15:39:47;18.70;99.90
47022;DHT22;32779;52.264;6.154;2023-07-31T15:42:13;18.70;99.90